Hlavní strana
METAR-TAF:

METAR-TAF

Letiště :

Morristown, Tennessee, Spojené státy americké

zeměpisná šířka: 36-10-46N, zeměpisná délka: 083-22-32W, výška: 400 m

Aktuální stav počasí

Zpráva byla vytvořena před 25 minutami, v 08:15 UTC
Západojihozápadní vítr 9 kt s nárazy do 14 kt
Teplota 16°C
Vlhkost vzduchu 88%
Tlak 1005 hPa
Viditelnost: 6.4 km
Skoro jasno ve výšce 2800 ft
Polojasno ve výšce 3600 ft
Oblačno až skoro zataženo ve výšce 4500 ft
kouřmo

METAR: KMOR 260815Z AUTO 25009G14KT 4SM BR FEW028 SCT036 BKN045 16/14 A2968 RMK A01

Čas: 03:40 (08:40 UTC)


TAF: chybějící

Stav a předpovědi počasí z více než 4 000 letišť (zprávy METAR a TAF).

Červené a žluté tečky na mapě představují dostupné meteorologické stanice.

Když kurzor umístíte na tečku, zobrazí se název stanice.

Pak kliknutím zobrazíte stav a předpověď počasí.

Chcete-li změnit mapu, kliknutím na zelené tlačítko se znaménkem +mapu přiblížíte, kliknutím na zelené tlačítko se znaménkem – mapu oddálíte a kliknutím na zelené šipky přejdete na sousední mapy.


METAR-TAF: